createdAt,value
2023-02-25T00:01:30.892Z,0
2023-02-25T00:03:56.970Z,0
2023-02-25T00:06:23.078Z,0
2023-02-25T00:08:49.166Z,0
2023-02-25T00:11:15.261Z,0
2023-02-25T00:13:41.456Z,0
2023-02-25T00:16:07.498Z,0
2023-02-25T00:18:33.547Z,0
2023-02-25T00:20:59.653Z,0
2023-02-25T00:23:25.739Z,0
2023-02-25T00:25:51.842Z,0
2023-02-25T00:28:16.953Z,0
2023-02-25T00:30:43.150Z,0
2023-02-25T00:33:09.143Z,0
2023-02-25T00:35:35.246Z,0
2023-02-25T00:38:01.329Z,0
2023-02-25T00:40:27.410Z,0
2023-02-25T00:42:53.512Z,0
2023-02-25T00:45:19.616Z,0
2023-02-25T00:47:45.708Z,0
2023-02-25T00:50:11.811Z,0
2023-02-25T00:52:37.904Z,0
2023-02-25T00:55:03.992Z,0
2023-02-25T00:57:30.086Z,0
2023-02-25T00:59:55.314Z,0
2023-02-25T01:02:21.287Z,0
2023-02-25T01:04:47.408Z,0
2023-02-25T01:07:13.478Z,0
2023-02-25T01:09:39.573Z,0
2023-02-25T01:12:05.679Z,0
2023-02-25T01:14:31.766Z,0
2023-02-25T01:16:57.856Z,0
2023-02-25T01:19:23.971Z,0
2023-02-25T01:21:50.053Z,0
2023-02-25T01:24:16.177Z,0
2023-02-25T01:26:42.271Z,0
2023-02-25T01:29:08.341Z,0
2023-02-25T01:31:33.472Z,0
2023-02-25T01:33:59.551Z,0
2023-02-25T01:36:25.631Z,0
2023-02-25T01:38:51.767Z,0
2023-02-25T01:41:17.822Z,0
2023-02-25T01:43:43.934Z,0
2023-02-25T01:46:10.020Z,0
2023-02-25T01:48:36.146Z,0
2023-02-25T01:51:02.217Z,0
2023-02-25T01:53:28.354Z,0
2023-02-25T01:55:54.413Z,0
2023-02-25T01:58:20.514Z,0
2023-02-25T02:00:46.627Z,0
2023-02-25T02:03:11.713Z,0
2023-02-25T02:05:37.844Z,0
2023-02-25T02:08:03.905Z,0
2023-02-25T02:10:29.989Z,0
2023-02-25T02:12:56.098Z,0
2023-02-25T02:15:22.190Z,0
2023-02-25T02:17:48.294Z,0
2023-02-25T02:20:14.425Z,0
2023-02-25T02:22:40.477Z,0
2023-02-25T02:25:06.576Z,0
2023-02-25T02:27:32.663Z,0
2023-02-25T02:29:58.826Z,0
2023-02-25T02:32:24.860Z,0
2023-02-25T02:34:49.977Z,0
2023-02-25T02:37:16.072Z,0
2023-02-25T02:39:42.154Z,0
2023-02-25T02:42:08.254Z,0
2023-02-25T02:44:34.359Z,0
2023-02-25T02:47:00.449Z,0
2023-02-25T02:49:26.552Z,0
2023-02-25T02:51:52.649Z,0
2023-02-25T02:54:18.721Z,0
2023-02-25T02:56:44.828Z,0
2023-02-25T02:59:10.943Z,0
2023-02-25T03:01:37.040Z,0
2023-02-25T03:04:03.099Z,0
2023-02-25T03:06:28.220Z,0
2023-02-25T03:08:54.311Z,0
2023-02-25T03:11:20.416Z,0
2023-02-25T03:13:46.509Z,0
2023-02-25T03:16:12.630Z,0
2023-02-25T03:18:38.707Z,0
2023-02-25T03:21:04.839Z,0
2023-02-25T03:23:30.894Z,0
2023-02-25T03:25:56.983Z,0
2023-02-25T03:28:23.080Z,0
2023-02-25T03:30:49.173Z,0
2023-02-25T03:33:15.271Z,0
2023-02-25T03:35:41.388Z,0
2023-02-25T03:38:06.480Z,0
2023-02-25T03:40:32.581Z,0
2023-02-25T03:42:58.717Z,0
2023-02-25T03:45:24.777Z,0
2023-02-25T03:47:50.978Z,0
2023-02-25T03:50:16.976Z,0
2023-02-25T03:52:43.056Z,0
2023-02-25T03:55:09.146Z,0
2023-02-25T03:57:35.303Z,0
2023-02-25T04:00:01.342Z,0
2023-02-25T04:02:27.445Z,0
2023-02-25T04:04:53.534Z,0
2023-02-25T04:07:19.625Z,0
2023-02-25T04:09:44.736Z,0
2023-02-25T04:12:10.836Z,0
2023-02-25T04:14:36.930Z,0
2023-02-25T04:17:03.026Z,0
2023-02-25T04:19:29.117Z,0
2023-02-25T04:21:55.214Z,0
2023-02-25T04:24:21.392Z,0
2023-02-25T04:26:47.397Z,0
2023-02-25T04:29:13.515Z,0
2023-02-25T04:31:39.604Z,0
2023-02-25T04:34:05.743Z,0
2023-02-25T04:36:31.800Z,0
2023-02-25T04:38:57.886Z,0
2023-02-25T04:41:23.014Z,0
2023-02-25T04:43:49.112Z,0
2023-02-25T04:46:15.165Z,0
2023-02-25T04:48:41.279Z,0
2023-02-25T04:51:07.383Z,0
2023-02-25T04:53:33.479Z,0
2023-02-25T04:55:58.601Z,0
2023-02-25T04:58:24.696Z,0
2023-02-25T05:00:50.775Z,0
2023-02-25T05:03:16.884Z,0
2023-02-25T05:05:42.981Z,0
2023-02-25T05:08:09.077Z,0
2023-02-25T05:13:01.288Z,0
2023-02-25T05:15:27.354Z,0
2023-02-25T05:20:19.556Z,0
2023-02-25T05:22:45.683Z,0
2023-02-25T05:25:11.779Z,0
2023-02-25T05:27:37.965Z,0
2023-02-25T05:30:04.060Z,0
2023-02-25T05:32:30.190Z,0
2023-02-25T05:34:56.291Z,0
2023-02-25T05:37:22.353Z,0
2023-02-25T05:39:48.449Z,0
2023-02-25T05:42:14.566Z,0
2023-02-25T05:44:40.639Z,0
2023-02-25T05:47:06.733Z,0
2023-02-25T05:49:32.830Z,4
2023-02-25T05:51:58.930Z,4
2023-02-25T05:54:25.007Z,4
2023-02-25T05:56:51.118Z,12
2023-02-25T05:59:16.225Z,12
2023-02-25T06:01:42.314Z,20
2023-02-25T06:04:08.463Z,28
2023-02-25T06:06:34.499Z,36
2023-02-25T06:09:00.593Z,52
2023-02-25T06:11:26.698Z,60
2023-02-25T06:13:52.784Z,68
2023-02-25T06:16:18.899Z,80
2023-02-25T06:18:44.982Z,100
2023-02-25T06:21:11.072Z,120
2023-02-25T06:23:37.194Z,148
2023-02-25T06:26:03.272Z,188
2023-02-25T06:28:29.364Z,216
2023-02-25T06:30:54.527Z,236
2023-02-25T06:33:20.571Z,261
2023-02-25T06:35:46.690Z,277
2023-02-25T06:38:12.767Z,337
2023-02-25T06:40:38.859Z,329
2023-02-25T06:43:05.063Z,429
2023-02-25T06:45:31.045Z,598
2023-02-25T06:47:57.189Z,646
2023-02-25T06:50:23.233Z,714
2023-02-25T06:52:49.359Z,730
2023-02-25T06:55:15.466Z,742
2023-02-25T06:57:41.542Z,738
2023-02-25T07:00:07.680Z,738
2023-02-25T07:02:32.741Z,750
2023-02-25T07:04:58.823Z,706
2023-02-25T07:07:24.934Z,702
2023-02-25T07:09:51.025Z,614
2023-02-25T07:12:17.122Z,530
2023-02-25T07:14:43.233Z,445
2023-02-25T07:17:09.318Z,505
2023-02-25T07:19:35.424Z,714
2023-02-25T07:22:01.491Z,999
2023-02-25T07:24:27.636Z,1148
2023-02-25T07:26:53.698Z,1325
2023-02-25T07:29:19.792Z,1457
2023-02-25T07:31:45.883Z,1730
2023-02-25T07:34:11.004Z,1726
2023-02-25T07:36:37.102Z,1991
2023-02-25T07:39:03.191Z,2156
2023-02-25T07:41:29.315Z,2264
2023-02-25T07:43:55.385Z,2445
2023-02-25T07:46:21.471Z,2638
2023-02-25T07:48:47.566Z,2746
2023-02-25T07:51:13.676Z,2999
2023-02-25T07:53:39.754Z,2943
2023-02-25T07:56:05.858Z,2658
2023-02-25T07:58:31.943Z,2774
2023-02-25T08:00:58.055Z,2915
2023-02-25T08:03:24.157Z,3132
2023-02-25T08:05:49.331Z,3092
2023-02-25T08:08:15.458Z,3164
2023-02-25T08:10:41.469Z,2682
2023-02-25T08:13:07.552Z,2790
2023-02-25T08:15:33.628Z,3397
2023-02-25T08:17:59.728Z,3429
2023-02-25T08:20:25.887Z,3698
2023-02-25T08:22:51.933Z,4100
2023-02-25T08:25:18.026Z,4132
2023-02-25T08:27:44.107Z,3983
2023-02-25T08:30:10.258Z,4075
2023-02-25T08:32:36.315Z,3830
2023-02-25T08:35:02.417Z,3541
2023-02-25T08:37:27.511Z,3690
2023-02-25T08:39:53.642Z,3541
2023-02-25T08:42:19.757Z,3164
2023-02-25T08:44:45.794Z,3023
2023-02-25T08:47:11.892Z,3296
2023-02-25T08:49:37.984Z,3553
2023-02-25T08:52:04.071Z,4192
2023-02-25T08:54:30.173Z,4658
2023-02-25T08:56:56.288Z,5103
2023-02-25T08:59:22.508Z,5124
2023-02-25T09:01:48.463Z,5244
2023-02-25T09:04:14.569Z,5296
2023-02-25T09:06:40.667Z,5377
2023-02-25T09:09:05.798Z,5509
2023-02-25T09:11:31.883Z,5714
2023-02-25T09:13:57.985Z,5710
2023-02-25T09:16:24.058Z,6075
2023-02-25T09:18:50.158Z,6268
2023-02-25T09:21:16.232Z,6384
2023-02-25T09:23:42.356Z,6738
2023-02-25T09:26:08.468Z,6629
2023-02-25T09:28:34.610Z,6328
2023-02-25T09:31:00.632Z,6268
2023-02-25T09:33:26.724Z,6324
2023-02-25T09:35:52.842Z,6453
2023-02-25T09:38:18.920Z,6272
2023-02-25T09:40:44.047Z,6252
2023-02-25T09:43:10.155Z,5360
2023-02-25T09:45:36.217Z,5561
2023-02-25T09:48:02.320Z,5429
2023-02-25T09:50:28.557Z,6417
2023-02-25T09:52:54.509Z,6376
2023-02-25T09:55:20.625Z,6645
2023-02-25T09:57:46.784Z,6405
2023-02-25T10:00:12.812Z,6722
2023-02-25T10:02:38.901Z,5963
2023-02-25T10:05:05.076Z,6722
2023-02-25T10:07:31.102Z,7196
2023-02-25T10:09:57.193Z,7143
2023-02-25T10:12:22.297Z,7412
2023-02-25T10:14:48.458Z,7425
2023-02-25T10:17:14.497Z,6939
2023-02-25T10:19:40.605Z,6115
2023-02-25T10:22:06.708Z,5991
2023-02-25T10:24:32.816Z,6517
2023-02-25T10:26:58.870Z,6734
2023-02-25T10:29:24.978Z,7541
2023-02-25T10:31:51.070Z,7461
2023-02-25T10:34:17.159Z,7673
2023-02-25T10:36:43.242Z,7416
2023-02-25T10:39:09.348Z,7798
2023-02-25T10:41:35.482Z,7754
2023-02-25T10:44:00.562Z,7533
2023-02-25T10:46:26.744Z,7778
2023-02-25T10:48:52.749Z,8175
2023-02-25T10:51:18.932Z,8673
2023-02-25T10:53:45.099Z,8882
2023-02-25T10:56:11.180Z,8922
2023-02-25T10:58:37.297Z,8802
2023-02-25T11:01:03.297Z,8212
2023-02-25T11:03:29.309Z,8019
2023-02-25T11:05:55.430Z,8681
2023-02-25T11:08:21.582Z,6854
2023-02-25T11:10:47.753Z,7216
2023-02-25T11:13:13.873Z,8344
2023-02-25T11:15:38.912Z,8196
2023-02-25T11:18:05.066Z,7657
2023-02-25T11:20:31.134Z,7778
2023-02-25T11:22:57.210Z,8147
2023-02-25T11:25:23.271Z,9987
2023-02-25T11:27:49.352Z,10276
2023-02-25T11:30:15.384Z,9717
2023-02-25T11:32:41.653Z,7770
2023-02-25T11:35:07.682Z,5433
2023-02-25T11:37:33.816Z,3818
2023-02-25T11:39:59.768Z,2750
2023-02-25T11:42:25.989Z,2754
2023-02-25T11:44:52.069Z,2517
2023-02-25T11:47:17.211Z,2132
2023-02-25T11:49:43.232Z,1710
2023-02-25T11:52:09.314Z,1851
2023-02-25T11:54:35.451Z,2485
2023-02-25T11:57:01.579Z,3200
2023-02-25T11:59:27.562Z,3140
2023-02-25T12:01:53.762Z,4312
2023-02-25T12:04:19.744Z,4722
2023-02-25T12:06:46.003Z,4710
2023-02-25T12:09:11.961Z,4899
2023-02-25T12:11:38.038Z,5517
2023-02-25T12:14:04.284Z,6236
2023-02-25T12:16:30.214Z,6103
2023-02-25T12:18:55.428Z,5244
2023-02-25T12:21:21.488Z,4549
2023-02-25T12:23:47.706Z,3995
2023-02-25T12:26:13.622Z,3505
2023-02-25T12:28:39.713Z,3843
2023-02-25T12:31:05.923Z,3606
2023-02-25T12:33:31.971Z,3393
2023-02-25T12:35:57.990Z,2606
2023-02-25T12:38:24.221Z,2626
2023-02-25T12:40:50.275Z,1722
2023-02-25T12:43:16.309Z,1473
2023-02-25T12:45:42.383Z,1361
2023-02-25T12:48:08.510Z,1967
2023-02-25T12:50:33.610Z,1634
2023-02-25T12:52:59.674Z,2023
2023-02-25T12:55:25.781Z,1674
2023-02-25T12:57:51.865Z,1919
2023-02-25T13:00:17.987Z,2919
2023-02-25T13:02:44.125Z,3606
2023-02-25T13:05:09.185Z,4726
2023-02-25T13:07:35.284Z,5132
2023-02-25T13:10:01.406Z,4806
2023-02-25T13:12:27.469Z,7517
2023-02-25T13:14:53.570Z,7922
2023-02-25T13:17:19.653Z,6605
2023-02-25T13:19:45.744Z,7930
2023-02-25T13:22:11.872Z,8754
2023-02-25T13:24:37.955Z,8344
2023-02-25T13:27:04.052Z,7232
2023-02-25T13:29:30.169Z,6766
2023-02-25T13:31:56.238Z,7276
2023-02-25T13:34:22.386Z,6939
2023-02-25T13:36:47.510Z,4441
2023-02-25T13:39:13.543Z,4947
2023-02-25T13:41:39.638Z,6501
2023-02-25T13:44:05.726Z,6272
2023-02-25T13:46:31.876Z,4867
2023-02-25T13:48:57.926Z,5862
2023-02-25T13:51:24.029Z,6545
2023-02-25T13:56:16.214Z,7943
2023-02-25T13:58:42.400Z,8292
2023-02-25T14:01:08.455Z,4742
2023-02-25T14:03:34.491Z,4830
2023-02-25T14:06:00.578Z,4698
2023-02-25T14:08:25.708Z,4401
2023-02-25T14:10:51.799Z,5569
2023-02-25T14:13:17.895Z,6127
2023-02-25T14:15:43.992Z,5485
2023-02-25T14:18:10.156Z,5352
2023-02-25T14:20:36.205Z,5336
2023-02-25T14:23:02.282Z,4268
2023-02-25T14:25:28.396Z,4152
2023-02-25T14:27:54.477Z,3188
2023-02-25T14:30:20.646Z,5107
2023-02-25T14:32:46.760Z,5409
2023-02-25T14:35:12.774Z,5513
2023-02-25T14:37:38.873Z,5862
2023-02-25T14:40:04.004Z,5762
2023-02-25T14:42:30.089Z,6449
2023-02-25T14:44:56.150Z,5907
2023-02-25T14:47:22.389Z,6047
2023-02-25T14:59:32.731Z,5381
2023-02-25T15:01:57.897Z,4172
2023-02-25T15:04:22.977Z,2935
2023-02-25T15:06:48.092Z,2879
2023-02-25T15:09:13.239Z,2401
2023-02-25T15:11:38.345Z,2666
2023-02-25T15:14:03.448Z,3104
2023-02-25T15:16:28.576Z,1935
2023-02-25T15:18:53.754Z,1738
2023-02-25T15:21:18.778Z,1513
2023-02-25T15:23:43.903Z,1702
2023-02-25T15:26:10.070Z,1441
2023-02-25T15:28:36.093Z,2128
2023-02-25T15:31:02.200Z,1855
2023-02-25T15:33:28.274Z,2300
2023-02-25T15:35:54.393Z,2256
2023-02-25T15:38:20.484Z,1939
2023-02-25T15:40:46.569Z,1851
2023-02-25T15:43:12.760Z,1349
2023-02-25T15:45:38.783Z,1040
2023-02-25T15:48:03.875Z,1080
2023-02-25T15:50:29.007Z,999
2023-02-25T15:52:55.140Z,566
2023-02-25T15:55:21.231Z,546
2023-02-25T15:57:47.306Z,485
2023-02-25T16:00:13.368Z,257
2023-02-25T16:02:39.475Z,232
2023-02-25T16:05:05.581Z,281
2023-02-25T16:07:31.670Z,273
2023-02-25T16:09:57.798Z,285
2023-02-25T16:12:23.864Z,321
2023-02-25T16:14:50.066Z,373
2023-02-25T16:17:16.081Z,325
2023-02-25T16:19:42.144Z,305
2023-02-25T16:22:07.263Z,273
2023-02-25T16:24:33.358Z,208
2023-02-25T16:26:59.449Z,172
2023-02-25T16:29:25.549Z,228
2023-02-25T16:31:51.645Z,257
2023-02-25T16:34:17.730Z,289
2023-02-25T16:36:43.839Z,269
2023-02-25T16:39:08.963Z,196
2023-02-25T16:41:34.075Z,160
2023-02-25T16:44:00.164Z,132
2023-02-25T16:46:26.264Z,116
2023-02-25T16:48:52.353Z,116
2023-02-25T16:51:18.475Z,96
2023-02-25T16:53:44.536Z,96
2023-02-25T16:56:10.641Z,100
2023-02-25T16:58:36.726Z,76
2023-02-25T17:01:02.833Z,68
2023-02-25T17:03:28.916Z,52
2023-02-25T17:05:55.043Z,40
2023-02-25T17:08:21.180Z,28
2023-02-25T17:10:47.204Z,20
2023-02-25T17:13:12.319Z,12
2023-02-25T17:15:38.413Z,12
2023-02-25T17:18:04.531Z,8
2023-02-25T17:20:30.651Z,4
2023-02-25T17:22:56.698Z,0
2023-02-25T17:25:22.873Z,0
2023-02-25T17:27:49.052Z,4
2023-02-25T17:30:14.101Z,0
2023-02-25T17:32:39.251Z,0
2023-02-25T17:35:04.251Z,0
2023-02-25T17:37:29.371Z,0
2023-02-25T17:39:55.458Z,0
2023-02-25T17:42:21.602Z,0
2023-02-25T17:44:47.654Z,0
2023-02-25T17:47:13.857Z,0
2023-02-25T17:49:39.878Z,0
2023-02-25T17:52:06.057Z,0
2023-02-25T17:54:32.128Z,0
2023-02-25T17:56:58.244Z,0
2023-02-25T17:59:24.238Z,0
2023-02-25T18:01:50.337Z,0
2023-02-25T18:04:16.680Z,0
2023-02-25T18:06:42.535Z,0
2023-02-25T18:09:07.642Z,0
2023-02-25T18:11:33.845Z,0
2023-02-25T18:13:59.953Z,0
2023-02-25T18:16:25.922Z,0
2023-02-25T18:18:52.026Z,0
2023-02-25T18:21:18.126Z,0
2023-02-25T18:23:44.213Z,0
2023-02-25T18:26:09.356Z,0
2023-02-25T18:28:34.457Z,0
2023-02-25T18:33:25.728Z,0
2023-02-25T18:35:50.825Z,0
2023-02-25T18:38:16.865Z,0
2023-02-25T18:40:43.070Z,0
2023-02-25T18:43:09.161Z,0
2023-02-25T18:45:35.191Z,0
2023-02-25T18:48:01.295Z,0
2023-02-25T18:50:27.388Z,0
2023-02-25T18:52:53.461Z,0
2023-02-25T18:55:19.648Z,0
2023-02-25T18:57:45.685Z,0
2023-02-25T19:00:11.762Z,0
2023-02-25T19:02:37.855Z,0
2023-02-25T19:05:04.005Z,0
2023-02-25T19:07:29.071Z,0
2023-02-25T19:09:55.160Z,0
2023-02-25T19:12:21.280Z,0
2023-02-25T19:14:47.436Z,0
2023-02-25T19:17:13.460Z,0
2023-02-25T19:19:38.639Z,0
2023-02-25T19:22:03.696Z,0
2023-02-25T19:24:29.800Z,0
2023-02-25T19:26:55.901Z,0
2023-02-25T19:29:22.104Z,0
2023-02-25T19:31:48.084Z,0
2023-02-25T19:34:14.238Z,0
2023-02-25T19:36:40.365Z,0
2023-02-25T19:39:06.478Z,0
2023-02-25T19:41:32.595Z,0
2023-02-25T19:43:58.701Z,0
2023-02-25T19:46:24.703Z,0
2023-02-25T19:48:50.819Z,0
2023-02-25T19:51:16.924Z,0
2023-02-25T19:53:42.117Z,0
2023-02-25T19:56:08.067Z,0
2023-02-25T19:58:34.189Z,0
2023-02-25T20:01:00.343Z,0
2023-02-25T20:03:26.525Z,0
2023-02-25T20:05:52.624Z,0
2023-02-25T20:08:18.556Z,0
2023-02-25T20:10:43.900Z,0
2023-02-25T20:13:08.893Z,0
2023-02-25T20:15:34.954Z,0
2023-02-25T20:18:01.070Z,0
2023-02-25T20:20:27.128Z,0
2023-02-25T20:22:53.250Z,0
2023-02-25T20:25:19.279Z,0
2023-02-25T20:27:45.404Z,0
2023-02-25T20:30:11.471Z,0
2023-02-25T20:32:37.697Z,0
2023-02-25T20:35:03.710Z,0
2023-02-25T20:37:29.813Z,0
2023-02-25T20:39:55.895Z,0
2023-02-25T20:42:22.016Z,0
2023-02-25T20:44:47.158Z,0
2023-02-25T20:47:13.184Z,0
2023-02-25T20:49:39.278Z,0
2023-02-25T20:52:05.378Z,0
2023-02-25T20:54:31.463Z,0
2023-02-25T20:56:57.579Z,0
2023-02-25T21:01:49.808Z,0
2023-02-25T21:04:15.854Z,0
2023-02-25T21:06:41.984Z,0
2023-02-25T21:09:08.038Z,0
2023-02-25T21:11:34.134Z,0
2023-02-25T21:14:00.225Z,0
2023-02-25T21:16:26.355Z,0
2023-02-25T21:18:52.426Z,0
2023-02-25T21:21:18.541Z,0
2023-02-25T21:23:44.620Z,0
2023-02-25T21:26:10.705Z,0
2023-02-25T21:28:36.806Z,0
2023-02-25T21:31:02.923Z,0
2023-02-25T21:33:29.134Z,0
2023-02-25T21:35:55.114Z,0
2023-02-25T21:38:21.275Z,0
2023-02-25T21:40:47.309Z,0
2023-02-25T21:43:13.418Z,0
2023-02-25T21:45:39.555Z,0
2023-02-25T21:48:05.641Z,0
2023-02-25T21:50:31.693Z,0
2023-02-25T21:52:57.796Z,0
2023-02-25T21:55:23.948Z,0
2023-02-25T21:57:50.044Z,0
2023-02-25T22:00:16.081Z,0
2023-02-25T22:02:42.189Z,0
2023-02-25T22:05:07.311Z,0
2023-02-25T22:07:33.451Z,0
2023-02-25T22:09:59.517Z,0
2023-02-25T22:12:25.596Z,0
2023-02-25T22:14:51.694Z,0
2023-02-25T22:17:17.798Z,0
2023-02-25T22:19:43.880Z,0
2023-02-25T22:22:10.132Z,0
2023-02-25T22:24:36.092Z,0
2023-02-25T22:27:02.175Z,0
2023-02-25T22:29:28.286Z,0
2023-02-25T22:31:54.361Z,0
2023-02-25T22:34:20.460Z,0
2023-02-25T22:36:46.650Z,0
2023-02-25T22:39:12.654Z,0
2023-02-25T22:41:37.870Z,0
2023-02-25T22:44:03.895Z,0
2023-02-25T22:46:29.977Z,0
2023-02-25T22:48:56.070Z,0
2023-02-25T22:51:22.255Z,0
2023-02-25T22:53:48.389Z,0
2023-02-25T22:56:14.364Z,0
2023-02-25T22:58:40.467Z,0
2023-02-25T23:01:06.571Z,0
2023-02-25T23:03:32.669Z,0
2023-02-25T23:05:58.738Z,0
2023-02-25T23:08:24.913Z,0
2023-02-25T23:10:50.945Z,0
2023-02-25T23:13:16.061Z,0
2023-02-25T23:15:42.216Z,0
2023-02-25T23:18:08.269Z,0
2023-02-25T23:20:34.343Z,0
2023-02-25T23:23:00.456Z,0
2023-02-25T23:25:26.569Z,0
2023-02-25T23:27:52.653Z,0
2023-02-25T23:30:18.766Z,0
2023-02-25T23:32:44.838Z,0
2023-02-25T23:35:10.949Z,0
2023-02-25T23:37:37.237Z,0
2023-02-25T23:40:03.335Z,0
2023-02-25T23:42:29.415Z,0
2023-02-25T23:44:54.453Z,0
2023-02-25T23:47:20.439Z,0
2023-02-25T23:49:46.559Z,0
2023-02-25T23:52:12.645Z,0
2023-02-25T23:54:38.927Z,0
2023-02-25T23:57:04.988Z,0
2023-02-25T23:59:31.139Z,0
